createdAt,value
2022-09-27T17:32:46.521Z,1.02
2022-09-27T17:35:14.989Z,0.90
2022-09-27T17:37:44.222Z,1.13
2022-09-27T17:40:12.783Z,1.42
2022-09-27T17:42:41.397Z,1.40
2022-09-27T17:45:11.489Z,1.38
2022-09-27T17:47:57.374Z,1.20
2022-09-27T17:50:29.065Z,0.93
2022-09-27T17:52:58.905Z,0.93
2022-09-27T17:55:27.635Z,1.45
2022-09-27T17:57:56.745Z,1.00
2022-09-27T18:00:25.630Z,0.95
2022-09-27T18:02:54.416Z,1.00
2022-09-27T18:05:22.708Z,0.90
2022-09-27T18:07:52.528Z,0.82
2022-09-27T18:10:21.353Z,1.10
2022-09-27T18:12:50.830Z,0.88
2022-09-27T18:15:20.757Z,1.30
2022-09-27T18:17:55.928Z,1.40
2022-09-27T18:20:26.842Z,1.25
2022-09-27T18:22:57.739Z,1.30
2022-09-27T18:25:26.362Z,1.02
2022-09-27T18:27:56.277Z,1.30
2022-09-27T18:30:24.735Z,1.33
2022-09-27T18:32:54.054Z,1.30
2022-09-27T18:35:24.632Z,1.08
2022-09-27T18:37:53.598Z,1.30
2022-09-27T18:40:38.349Z,1.40
2022-09-27T18:43:12.334Z,1.88
2022-09-27T18:45:41.175Z,1.33
2022-09-27T18:48:10.020Z,1.30
2022-09-27T18:50:39.223Z,1.88
2022-09-27T18:53:09.806Z,2.05
2022-09-27T18:55:41.961Z,2.10
2022-09-27T18:58:14.559Z,3.00
2022-09-27T19:00:44.155Z,2.00
2022-09-27T19:03:15.006Z,1.83
2022-09-27T19:05:43.781Z,2.30
2022-09-27T19:08:12.892Z,2.22
2022-09-27T19:10:42.903Z,2.63
2022-09-27T19:13:11.852Z,2.28
2022-09-27T19:15:41.556Z,1.70
2022-09-27T19:18:10.523Z,1.90
2022-09-27T19:20:39.404Z,2.03
2022-09-27T19:23:08.456Z,2.53
2022-09-27T19:25:40.577Z,3.25
2022-09-27T19:28:12.434Z,3.17
2022-09-27T19:30:42.050Z,2.35
2022-09-27T19:33:10.938Z,2.08
2022-09-27T19:35:39.542Z,2.08
2022-09-27T19:38:08.081Z,1.88
2022-09-27T19:40:36.967Z,1.58
2022-09-27T19:43:05.769Z,1.63
2022-09-27T19:45:36.661Z,1.80
2022-09-27T19:48:05.449Z,1.90
2022-09-27T19:50:33.984Z,1.40
2022-09-27T19:53:02.424Z,1.50
2022-09-27T19:55:31.178Z,2.25
2022-09-27T19:58:00.236Z,2.15
2022-09-27T20:00:28.341Z,1.90
2022-09-27T20:02:58.408Z,1.92
2022-09-27T20:05:27.153Z,2.25
2022-09-27T20:07:55.579Z,2.10
2022-09-27T20:10:24.365Z,2.35
2022-09-27T20:12:54.298Z,2.20
2022-09-27T20:15:23.041Z,2.88
2022-09-27T20:17:51.841Z,2.30
2022-09-27T20:20:22.401Z,2.90
2022-09-27T20:22:51.002Z,2.60
2022-09-27T20:25:19.697Z,3.30
2022-09-27T20:27:48.233Z,2.63
2022-09-27T20:30:16.772Z,3.40
2022-09-27T20:33:05.472Z,2.70
2022-09-27T20:35:35.587Z,3.08
2022-09-27T20:38:03.873Z,2.63
2022-09-27T20:40:32.625Z,2.15
2022-09-27T20:43:01.048Z,2.90
2022-09-27T20:45:29.939Z,2.17
2022-09-27T20:47:58.483Z,2.45
2022-09-27T20:50:27.718Z,2.65
2022-09-27T20:52:59.027Z,3.95
2022-09-27T20:55:28.337Z,2.60
2022-09-27T20:57:58.193Z,3.20
2022-09-27T21:00:26.795Z,2.97
2022-09-27T21:02:55.330Z,4.32
2022-09-27T21:05:23.757Z,4.40
2022-09-27T21:07:55.520Z,4.10
2022-09-27T21:10:25.484Z,3.40
2022-09-27T21:12:54.132Z,2.92
2022-09-27T21:15:22.421Z,2.90
2022-09-27T21:17:52.853Z,2.85
2022-09-27T21:20:21.681Z,3.13
2022-09-27T21:22:50.210Z,2.50
2022-09-27T21:25:19.273Z,2.65
2022-09-27T21:27:49.360Z,3.00
2022-09-27T21:30:17.666Z,3.15
2022-09-27T21:32:46.671Z,3.17
2022-09-27T21:35:15.310Z,3.20
2022-09-27T21:37:44.106Z,2.58
2022-09-27T21:40:12.746Z,2.42
2022-09-27T21:42:41.097Z,2.50
2022-09-27T21:45:12.036Z,3.03
2022-09-27T21:47:40.319Z,2.63
2022-09-27T21:50:09.609Z,2.53
2022-09-27T21:52:38.087Z,2.67
2022-09-27T21:55:07.506Z,2.63
2022-09-27T21:57:36.089Z,2.35
2022-09-27T22:00:06.010Z,2.70
2022-09-27T22:02:36.644Z,2.67
2022-09-27T22:05:05.708Z,3.10
2022-09-27T22:07:34.148Z,2.55
2022-09-27T22:10:02.712Z,2.70
2022-09-27T22:12:31.497Z,3.10
2022-09-27T22:15:00.393Z,2.92
2022-09-27T22:17:29.090Z,3.00
2022-09-27T22:20:00.030Z,2.78
2022-09-27T22:22:28.522Z,3.00
2022-09-27T22:24:57.532Z,3.00
2022-09-27T22:27:26.069Z,3.70
2022-09-27T22:29:54.388Z,3.22
2022-09-27T22:32:22.727Z,2.58
2022-09-27T22:34:51.310Z,3.28
2022-09-27T22:37:21.238Z,3.20
2022-09-27T22:39:49.755Z,3.42
2022-09-27T22:42:19.063Z,3.53
2022-09-27T22:44:47.813Z,3.10
2022-09-27T22:47:17.024Z,4.07
2022-09-27T22:49:45.130Z,3.30
2022-09-27T22:52:14.102Z,2.70
2022-09-27T22:54:44.052Z,2.70
2022-09-27T22:57:12.556Z,2.47
2022-09-27T22:59:41.637Z,2.10
2022-09-27T23:02:10.235Z,2.42
2022-09-27T23:04:43.112Z,2.58
2022-09-27T23:07:13.752Z,2.42
2022-09-27T23:09:50.231Z,3.75
2022-09-27T23:12:20.980Z,2.25
2022-09-27T23:14:49.854Z,2.10
2022-09-27T23:17:20.476Z,2.17
2022-09-27T23:19:48.931Z,2.15
2022-09-27T23:22:17.377Z,2.55
2022-09-27T23:24:48.286Z,2.58
2022-09-27T23:27:34.203Z,2.50
2022-09-27T23:30:03.035Z,2.20
2022-09-27T23:32:32.003Z,2.38
2022-09-27T23:35:00.567Z,2.53
2022-09-27T23:37:29.754Z,2.30
2022-09-27T23:40:00.203Z,2.22
2022-09-27T23:42:28.843Z,2.13
2022-09-27T23:44:57.569Z,2.17
2022-09-27T23:47:25.956Z,2.20
2022-09-27T23:49:54.350Z,2.40
2022-09-27T23:52:22.922Z,1.98
2022-09-27T23:54:51.410Z,1.95
2022-09-27T23:57:21.497Z,1.70
2022-09-27T23:59:50.239Z,1.63
